KMIC/MIC METAR and TAF weather

Enter ICAO airport designator
Station Type Date Time Source
KMIC METAR 2022/01/18 07:53 UTC NOAA

KMIC 180753Z 12005KT 10SM CLR M04/M06 A2973 RMK AO2 SLP081 T10391061


Station Type Date Time Source
KMIC Decoded METAR 2022/01/18 07:53 UTC NOAA

CRYSTAL AIRPORT, MN, United States (KMIC) 45-04N 093-21W 265M
Jan 18, 2022 - 02:53 AM EST / 2022.01.18 0753 UTC
Wind: from the ESE (120 degrees) at 6 MPH (5 KT):0
Visibility: 10 mile(s):0
Sky conditions: clear
Temperature: 25.0 F (-3.9 C)
Windchill: 17 F (-8 C):1
Dew Point: 21.0 F (-6.1 C)
Relative Humidity: 84%
Pressure (altimeter): 29.73 in. Hg (1006 hPa)
ob: KMIC 180753Z 12005KT 10SM CLR M04/M06 A2973 RMK AO2 SLP081 T10391061
cycle: 8

Station Type Date Time Source
KMIC TAF UTC NOAA

Error!

Example: see airport list